createdAt,value
2023-02-26T00:01:21.684Z,100953.47
2023-02-26T00:06:26.239Z,100975.28
2023-02-26T00:11:29.810Z,100967.91
2023-02-26T00:16:35.084Z,100986.72
2023-02-26T00:21:37.677Z,100996.19
2023-02-26T00:26:39.739Z,101004.56
2023-02-26T00:31:42.051Z,101012.31
2023-02-26T00:37:12.081Z,101031.44
2023-02-26T00:42:14.657Z,101031.78
2023-02-26T00:47:51.176Z,101039.06
2023-02-26T00:53:11.815Z,101051.78
2023-02-26T00:58:13.572Z,101043.06
2023-02-26T01:03:15.880Z,101056.25
2023-02-26T01:08:31.490Z,101057.63
2023-02-26T01:13:34.124Z,101072.22
2023-02-26T01:18:47.239Z,101069.72
2023-02-26T01:23:52.125Z,101077.06
2023-02-26T01:28:54.146Z,101079.59
2023-02-26T01:34:03.680Z,101071.72
2023-02-26T01:39:16.027Z,101078.66
2023-02-26T01:44:40.259Z,101079.25
2023-02-26T01:49:43.294Z,101077.44
2023-02-26T01:54:44.916Z,101060.03
2023-02-26T01:59:51.927Z,101071.66
2023-02-26T02:04:56.965Z,101066.13
2023-02-26T02:09:59.931Z,101058.63
2023-02-26T02:15:07.678Z,101055.75
2023-02-26T02:20:26.489Z,101053.34
2023-02-26T02:26:01.766Z,101061.56
2023-02-26T02:31:06.622Z,101065.75
2023-02-26T02:36:17.032Z,101066.78
2023-02-26T02:41:29.422Z,101084.00
2023-02-26T02:46:35.530Z,101093.34
2023-02-26T02:51:46.845Z,101094.56
2023-02-26T02:57:10.541Z,101111.31
2023-02-26T03:02:37.038Z,101110.34
2023-02-26T03:07:55.484Z,101110.75
2023-02-26T03:12:57.155Z,101124.84
2023-02-26T03:18:17.467Z,101128.09
2023-02-26T03:23:40.626Z,101127.06
2023-02-26T03:35:26.233Z,101137.09
2023-02-26T03:40:35.813Z,101144.13
2023-02-26T03:45:43.507Z,101155.66
2023-02-26T03:50:54.740Z,101158.97
2023-02-26T03:56:34.311Z,101165.88
2023-02-26T04:02:12.010Z,101180.03
2023-02-26T04:07:17.588Z,101185.47
2023-02-26T04:12:25.716Z,101184.97
2023-02-26T04:17:30.460Z,101186.31
2023-02-26T04:22:34.722Z,101188.47
2023-02-26T04:27:37.030Z,101188.66
2023-02-26T04:32:39.305Z,101187.22
2023-02-26T04:37:43.524Z,101197.41
2023-02-26T04:42:47.509Z,101208.03
2023-02-26T04:47:53.876Z,101215.34
2023-02-26T04:52:56.498Z,101225.13
2023-02-26T04:57:58.992Z,101241.00
2023-02-26T05:03:01.045Z,101249.28
2023-02-26T05:08:04.347Z,101249.69
2023-02-26T05:13:06.983Z,101248.50
2023-02-26T05:18:10.003Z,101254.25
2023-02-26T05:23:11.783Z,101262.56
2023-02-26T05:28:14.822Z,101274.03
2023-02-26T05:33:17.004Z,101291.41
2023-02-26T05:38:19.231Z,101296.31
2023-02-26T05:43:21.014Z,101293.25
2023-02-26T05:48:23.886Z,101292.72
2023-02-26T05:53:26.417Z,101297.97
2023-02-26T05:58:31.742Z,101304.25
2023-02-26T06:03:33.984Z,101307.66
2023-02-26T06:08:36.047Z,101306.97
2023-02-26T06:13:37.772Z,101308.78
2023-02-26T06:18:39.702Z,101310.81
2023-02-26T06:23:42.065Z,101310.09
2023-02-26T06:28:43.970Z,101324.25
2023-02-26T06:33:45.897Z,101335.84
2023-02-26T06:38:48.065Z,101347.25
2023-02-26T06:43:50.552Z,101355.31
2023-02-26T06:48:52.706Z,101375.19
2023-02-26T06:53:54.440Z,101388.63
2023-02-26T06:58:56.824Z,101397.75
2023-02-26T07:03:58.653Z,101413.63
2023-02-26T07:09:00.909Z,101427.69
2023-02-26T07:14:02.997Z,101447.00
2023-02-26T07:19:04.809Z,101452.91
2023-02-26T07:24:07.629Z,101456.22
2023-02-26T07:29:09.600Z,101479.28
2023-02-26T07:34:11.319Z,101495.38
2023-02-26T07:39:13.516Z,101496.16
2023-02-26T07:44:15.534Z,101493.38
2023-02-26T07:49:17.457Z,101505.81
2023-02-26T07:54:19.669Z,101510.19
2023-02-26T07:59:21.481Z,101519.53
2023-02-26T08:04:23.690Z,101522.97
2023-02-26T08:09:25.699Z,101519.81
2023-02-26T08:14:27.659Z,101536.81
2023-02-26T08:19:29.343Z,101527.25
2023-02-26T08:24:31.436Z,101537.16
2023-02-26T08:29:33.271Z,101539.91
2023-02-26T08:34:35.991Z,101551.81
2023-02-26T08:39:48.089Z,101552.91
2023-02-26T08:44:50.288Z,101551.66
2023-02-26T08:49:52.679Z,101556.09
2023-02-26T08:55:10.510Z,101558.66
2023-02-26T09:00:27.661Z,101569.56
2023-02-26T09:05:30.346Z,101569.25
2023-02-26T09:10:33.153Z,101583.84
2023-02-26T09:15:42.357Z,101582.94
2023-02-26T09:20:45.576Z,101589.78
2023-02-26T09:25:52.764Z,101593.75
2023-02-26T09:30:55.905Z,101606.22
2023-02-26T09:35:58.162Z,101603.38
2023-02-26T09:41:16.129Z,101603.66
2023-02-26T09:46:40.415Z,101606.38
2023-02-26T09:51:44.977Z,101619.94
2023-02-26T09:56:48.159Z,101624.44
2023-02-26T10:02:16.096Z,101630.47
2023-02-26T10:07:30.178Z,101634.97
2023-02-26T10:12:36.971Z,101635.53
2023-02-26T10:17:42.428Z,101635.63
2023-02-26T10:23:07.501Z,101650.53
2023-02-26T10:28:39.345Z,101662.00
2023-02-26T10:33:54.912Z,101657.78
2023-02-26T10:39:04.535Z,101660.44
2023-02-26T10:44:14.889Z,101669.94
2023-02-26T10:49:26.220Z,101657.88
2023-02-26T10:54:36.879Z,101680.00
2023-02-26T10:59:39.220Z,101675.75
2023-02-26T11:04:40.927Z,101691.91
2023-02-26T11:09:46.263Z,101693.53
2023-02-26T11:14:49.386Z,101699.06
2023-02-26T11:20:04.784Z,101690.13
2023-02-26T11:25:07.509Z,101698.13
2023-02-26T11:30:18.338Z,101697.81
2023-02-26T11:35:24.343Z,101712.97
2023-02-26T11:40:37.766Z,101700.72
2023-02-26T11:45:44.310Z,101696.34
2023-02-26T11:50:51.991Z,101696.81
2023-02-26T11:56:00.542Z,101699.75
2023-02-26T12:01:03.814Z,101695.34
2023-02-26T12:06:05.988Z,101696.34
2023-02-26T12:11:36.522Z,101690.75
2023-02-26T12:16:56.421Z,101688.06
2023-02-26T12:22:25.937Z,101682.41
2023-02-26T12:27:46.626Z,101685.34
2023-02-26T12:33:36.387Z,101697.44
2023-02-26T12:39:09.658Z,101678.44
2023-02-26T12:44:40.579Z,101685.75
2023-02-26T12:50:17.787Z,101683.81
2023-02-26T12:55:45.317Z,101677.31
2023-02-26T13:01:10.641Z,101679.59
2023-02-26T13:06:34.271Z,101683.44
2023-02-26T13:11:48.141Z,101676.13
2023-02-26T13:17:21.510Z,101670.28
2023-02-26T13:22:30.783Z,101677.19
2023-02-26T13:27:38.711Z,101683.53
2023-02-26T13:32:44.549Z,101683.84
2023-02-26T13:37:50.957Z,101690.66
2023-02-26T13:43:11.139Z,101694.66
2023-02-26T13:48:24.894Z,101688.50
2023-02-26T13:53:33.424Z,101682.88
2023-02-26T13:58:41.801Z,101691.16
2023-02-26T14:03:54.164Z,101680.53
2023-02-26T14:08:57.122Z,101680.97
2023-02-26T14:14:19.374Z,101683.91
2023-02-26T14:19:37.226Z,101697.69
2023-02-26T14:24:45.107Z,101690.19
2023-02-26T14:29:56.430Z,101687.19
2023-02-26T14:35:12.538Z,101688.94
2023-02-26T14:40:19.134Z,101697.44
2023-02-26T14:45:29.943Z,101696.47
2023-02-26T14:51:07.886Z,101697.47
2023-02-26T14:56:41.394Z,101698.41
2023-02-26T15:02:05.822Z,101698.41
2023-02-26T15:07:32.893Z,101702.56
2023-02-26T15:12:44.102Z,101697.19
2023-02-26T15:18:16.717Z,101691.91
2023-02-26T15:23:35.594Z,101694.56
2023-02-26T15:28:41.594Z,101712.31
2023-02-26T15:33:43.346Z,101707.66
2023-02-26T15:38:53.711Z,101707.47
2023-02-26T15:44:14.953Z,101708.09
2023-02-26T15:49:27.063Z,101714.97
2023-02-26T15:54:38.818Z,101732.03
2023-02-26T15:59:48.968Z,101730.34
2023-02-26T16:04:51.044Z,101741.31
2023-02-26T16:09:54.798Z,101753.16
2023-02-26T16:15:00.914Z,101754.91
2023-02-26T16:20:06.824Z,101757.88
2023-02-26T16:25:18.828Z,101765.41
2023-02-26T16:30:26.780Z,101767.91
2023-02-26T16:35:34.455Z,101766.97
2023-02-26T16:45:51.306Z,101770.13
2023-02-26T16:51:03.034Z,101771.66
2023-02-26T16:56:05.851Z,101781.63
2023-02-26T17:01:13.487Z,101788.59
2023-02-26T17:06:17.628Z,101794.22
2023-02-26T17:11:32.720Z,101805.59
2023-02-26T17:16:34.599Z,101806.63
2023-02-26T17:21:45.348Z,101810.44
2023-02-26T17:26:48.756Z,101816.94
2023-02-26T17:31:51.307Z,101824.84
2023-02-26T17:36:55.583Z,101827.50
2023-02-26T17:41:57.522Z,101842.78
2023-02-26T17:46:59.122Z,101844.22
2023-02-26T17:52:01.180Z,101843.56
2023-02-26T17:57:03.506Z,101858.09
2023-02-26T18:02:22.546Z,101861.00
2023-02-26T18:07:25.197Z,101864.00
2023-02-26T18:12:27.389Z,101864.19
2023-02-26T18:17:30.084Z,101867.31
2023-02-26T18:22:32.159Z,101864.84
2023-02-26T18:27:34.094Z,101875.69
2023-02-26T18:32:36.069Z,101874.94
2023-02-26T18:37:38.612Z,101880.81
2023-02-26T18:42:40.662Z,101885.00
2023-02-26T18:47:43.069Z,101881.16
2023-02-26T18:52:45.387Z,101884.34
2023-02-26T18:57:47.242Z,101894.59
2023-02-26T19:02:49.507Z,101899.81
2023-02-26T19:07:52.870Z,101901.34
2023-02-26T19:12:54.889Z,101896.25
2023-02-26T19:17:57.271Z,101902.03
2023-02-26T19:22:59.171Z,101902.41
2023-02-26T19:28:01.375Z,101910.44
2023-02-26T19:33:03.413Z,101917.38
2023-02-26T19:38:05.740Z,101928.13
2023-02-26T19:43:08.556Z,101933.59
2023-02-26T19:48:11.671Z,101932.78
2023-02-26T19:53:13.858Z,101937.84
2023-02-26T19:58:18.374Z,101937.84
2023-02-26T20:03:20.245Z,101947.69
2023-02-26T20:08:24.566Z,101945.72
2023-02-26T20:19:56.129Z,101953.63
2023-02-26T20:24:57.980Z,101970.09
2023-02-26T20:30:01.039Z,101975.94
2023-02-26T20:35:05.186Z,101983.44
2023-02-26T20:40:08.305Z,101979.47
2023-02-26T20:45:10.564Z,101981.00
2023-02-26T20:50:12.468Z,101976.63
2023-02-26T20:55:14.528Z,101980.66
2023-02-26T21:00:17.890Z,101980.00
2023-02-26T21:05:20.699Z,101988.19
2023-02-26T21:10:22.797Z,101986.78
2023-02-26T21:15:25.150Z,101988.97
2023-02-26T21:20:27.714Z,101988.00
2023-02-26T21:25:29.382Z,101999.38
2023-02-26T21:30:31.164Z,101978.66
2023-02-26T21:35:33.936Z,101987.53
2023-02-26T21:40:36.431Z,101997.19
2023-02-26T21:45:39.547Z,101998.78
2023-02-26T21:50:41.551Z,102000.38
2023-02-26T21:55:43.661Z,101991.38
2023-02-26T22:00:45.789Z,101992.69
2023-02-26T22:05:51.383Z,101986.63
2023-02-26T22:10:54.228Z,101987.47
2023-02-26T22:15:56.357Z,101983.78
2023-02-26T22:20:58.576Z,101980.75
2023-02-26T22:26:02.155Z,101980.03
2023-02-26T22:37:31.972Z,101988.50
2023-02-26T22:42:34.078Z,101989.59
2023-02-26T22:47:35.607Z,101988.38
2023-02-26T22:52:37.895Z,101996.94
2023-02-26T22:57:40.046Z,102004.13
2023-02-26T23:02:42.700Z,102005.31
2023-02-26T23:07:44.593Z,102006.13
2023-02-26T23:12:46.509Z,102001.53
2023-02-26T23:17:48.459Z,102000.69
2023-02-26T23:22:50.056Z,102008.19
2023-02-26T23:27:51.579Z,102000.97
2023-02-26T23:32:53.292Z,101999.06
2023-02-26T23:37:55.332Z,102006.88
2023-02-26T23:42:57.815Z,102006.69
2023-02-26T23:48:00.077Z,102013.81
2023-02-26T23:53:02.415Z,102011.78
2023-02-26T23:58:04.486Z,102017.22
